createdAt,value
2022-12-31T00:00:42.644Z,1013.44
2022-12-31T00:01:42.552Z,1013.41
2022-12-31T00:02:42.621Z,1013.46
2022-12-31T00:03:42.504Z,1013.42
2022-12-31T00:04:42.509Z,1013.46
2022-12-31T00:05:42.501Z,1013.50
2022-12-31T00:06:42.463Z,1013.35
2022-12-31T00:08:14.096Z,1013.45
2022-12-31T00:09:15.080Z,1013.36
2022-12-31T00:10:15.074Z,1013.25
2022-12-31T00:11:15.052Z,1013.52
2022-12-31T00:12:15.026Z,1013.39
2022-12-31T00:13:15.064Z,1013.47
2022-12-31T00:14:15.022Z,1013.58
2022-12-31T00:15:15.018Z,1013.48
2022-12-31T00:16:14.992Z,1013.63
2022-12-31T00:17:15.011Z,1013.52
2022-12-31T00:18:14.967Z,1013.35
2022-12-31T00:19:14.951Z,1013.47
2022-12-31T00:20:14.962Z,1013.54
2022-12-31T00:21:14.929Z,1013.48
2022-12-31T00:22:14.944Z,1013.60
2022-12-31T00:23:14.896Z,1013.55
2022-12-31T00:24:14.885Z,1013.59
2022-12-31T00:25:14.903Z,1013.44
2022-12-31T00:26:14.857Z,1013.60
2022-12-31T00:27:14.869Z,1013.53
2022-12-31T00:28:14.820Z,1013.64
2022-12-31T00:29:14.821Z,1013.54
2022-12-31T00:30:14.846Z,1013.62
2022-12-31T00:31:14.805Z,1013.59
2022-12-31T00:32:14.783Z,1013.70
2022-12-31T00:33:14.758Z,1013.73
2022-12-31T00:34:14.737Z,1013.67
2022-12-31T00:35:14.771Z,1013.67
2022-12-31T00:36:14.783Z,1013.77
2022-12-31T00:37:14.702Z,1013.85
2022-12-31T00:38:14.692Z,1013.81
2022-12-31T00:39:14.675Z,1013.89
2022-12-31T00:40:14.684Z,1013.88
2022-12-31T00:41:14.677Z,1013.86
2022-12-31T00:42:14.638Z,1013.88
2022-12-31T00:43:14.651Z,1013.79
2022-12-31T00:44:14.619Z,1013.84
2022-12-31T00:45:14.628Z,1013.79
2022-12-31T00:46:14.600Z,1013.87
2022-12-31T00:47:14.567Z,1013.89
2022-12-31T00:48:14.575Z,1013.96
2022-12-31T00:49:14.543Z,1013.96
2022-12-31T00:50:14.543Z,1013.98
2022-12-31T00:51:14.562Z,1013.87
2022-12-31T00:52:14.551Z,1013.86
2022-12-31T00:53:14.514Z,1013.98
2022-12-31T00:54:14.475Z,1013.88
2022-12-31T00:55:14.466Z,1013.99
2022-12-31T00:56:14.470Z,1013.91
2022-12-31T00:57:14.449Z,1013.97
2022-12-31T00:58:14.414Z,1014.00
2022-12-31T00:59:14.417Z,1014.02
2022-12-31T01:00:14.417Z,1014.02
2022-12-31T01:01:14.528Z,1013.98
2022-12-31T01:02:14.626Z,1014.08
2022-12-31T01:03:14.440Z,1014.15
2022-12-31T01:04:14.354Z,1013.93
2022-12-31T01:05:14.343Z,1014.16
2022-12-31T01:06:14.357Z,1014.11
2022-12-31T01:07:14.305Z,1014.12
2022-12-31T01:08:14.301Z,1014.13
2022-12-31T01:09:14.306Z,1014.11
2022-12-31T01:10:14.267Z,1013.91
2022-12-31T01:11:14.280Z,1014.08
2022-12-31T01:12:14.240Z,1013.93
2022-12-31T01:13:14.255Z,1014.00
2022-12-31T01:14:14.225Z,1013.97
2022-12-31T01:15:14.219Z,1014.05
2022-12-31T01:16:14.262Z,1013.98
2022-12-31T01:17:14.166Z,1014.15
2022-12-31T01:18:14.186Z,1014.20
2022-12-31T01:19:14.168Z,1014.19
2022-12-31T01:20:14.149Z,1014.17
2022-12-31T01:21:14.169Z,1014.12
2022-12-31T01:22:14.103Z,1014.11
2022-12-31T01:23:14.091Z,1014.10
2022-12-31T01:24:14.098Z,1014.14
2022-12-31T01:25:14.086Z,1014.20
2022-12-31T01:26:14.081Z,1014.30
2022-12-31T01:27:14.057Z,1014.27
2022-12-31T01:28:14.062Z,1014.26
2022-12-31T01:29:14.019Z,1014.31
2022-12-31T01:30:14.011Z,1014.28
2022-12-31T01:31:14.183Z,1014.33
2022-12-31T01:32:13.981Z,1014.34
2022-12-31T01:33:13.959Z,1014.30
2022-12-31T01:34:13.937Z,1014.43
2022-12-31T01:35:13.951Z,1014.33
2022-12-31T01:36:13.989Z,1014.29
2022-12-31T01:37:13.920Z,1014.25
2022-12-31T01:38:13.911Z,1014.41
2022-12-31T01:39:13.923Z,1014.47
2022-12-31T01:40:13.915Z,1014.37
2022-12-31T01:41:13.885Z,1014.39
2022-12-31T01:42:13.833Z,1014.48
2022-12-31T01:43:13.829Z,1014.51
2022-12-31T01:44:13.861Z,1014.48
2022-12-31T01:45:13.796Z,1014.63
2022-12-31T01:46:13.906Z,1014.64
2022-12-31T01:47:13.790Z,1014.51
2022-12-31T01:48:13.757Z,1014.54
2022-12-31T01:49:13.783Z,1014.50
2022-12-31T01:50:13.755Z,1014.75
2022-12-31T01:51:13.720Z,1014.66
2022-12-31T01:52:13.715Z,1014.70
2022-12-31T01:53:13.705Z,1014.70
2022-12-31T01:54:13.680Z,1014.80
2022-12-31T01:55:13.722Z,1014.81
2022-12-31T01:56:13.687Z,1014.78
2022-12-31T01:57:13.671Z,1014.77
2022-12-31T01:58:13.659Z,1014.88
2022-12-31T01:59:13.619Z,1014.83
2022-12-31T02:00:13.590Z,1014.86
2022-12-31T02:01:13.624Z,1014.75
2022-12-31T02:02:13.598Z,1014.81
2022-12-31T02:03:13.639Z,1014.97
2022-12-31T02:04:13.557Z,1014.72
2022-12-31T02:05:13.542Z,1014.69
2022-12-31T02:06:13.542Z,1014.72
2022-12-31T02:07:13.511Z,1014.80
2022-12-31T02:08:13.478Z,1014.71
2022-12-31T02:09:13.501Z,1014.92
2022-12-31T02:10:13.484Z,1014.82
2022-12-31T02:11:13.443Z,1014.92
2022-12-31T02:12:13.419Z,1014.74
2022-12-31T02:13:13.428Z,1014.84
2022-12-31T02:14:13.400Z,1014.91
2022-12-31T02:15:13.419Z,1014.78
2022-12-31T02:16:13.398Z,1014.92
2022-12-31T02:17:13.412Z,1014.87
2022-12-31T02:18:13.357Z,1014.92
2022-12-31T02:19:13.390Z,1014.83
2022-12-31T02:20:13.321Z,1014.87
2022-12-31T02:21:13.322Z,1014.98
2022-12-31T02:22:13.351Z,1014.86
2022-12-31T02:23:13.310Z,1014.92
2022-12-31T02:24:13.267Z,1014.90
2022-12-31T02:25:13.272Z,1014.89
2022-12-31T02:26:13.252Z,1014.81
2022-12-31T02:27:13.286Z,1014.78
2022-12-31T02:28:13.223Z,1014.83
2022-12-31T02:29:13.223Z,1014.85
2022-12-31T02:30:13.213Z,1014.93
2022-12-31T02:31:13.229Z,1014.84
2022-12-31T02:32:13.160Z,1014.89
2022-12-31T02:33:13.171Z,1014.85
2022-12-31T02:34:13.136Z,1015.00
2022-12-31T02:35:13.153Z,1014.88
2022-12-31T02:36:13.131Z,1014.93
2022-12-31T02:37:13.119Z,1014.97
2022-12-31T02:38:13.101Z,1015.09
2022-12-31T02:39:13.116Z,1014.98
2022-12-31T02:40:13.084Z,1014.95
2022-12-31T02:41:13.051Z,1014.89
2022-12-31T02:42:13.061Z,1014.84
2022-12-31T02:43:13.042Z,1014.97
2022-12-31T02:44:13.007Z,1014.83
2022-12-31T02:45:12.989Z,1014.95
2022-12-31T02:46:13.039Z,1014.76
2022-12-31T02:47:12.983Z,1014.71
2022-12-31T02:48:13.019Z,1014.76
2022-12-31T02:49:12.940Z,1014.88
2022-12-31T02:50:12.925Z,1014.92
2022-12-31T02:51:12.921Z,1014.90
2022-12-31T02:52:12.913Z,1014.93
2022-12-31T02:53:12.918Z,1014.73
2022-12-31T02:54:12.882Z,1014.86
2022-12-31T02:55:12.857Z,1014.88
2022-12-31T02:56:12.859Z,1014.93
2022-12-31T02:57:12.858Z,1015.01
2022-12-31T02:58:12.861Z,1015.04
2022-12-31T02:59:12.828Z,1014.97
2022-12-31T03:00:12.803Z,1015.03
2022-12-31T03:01:12.932Z,1015.08
2022-12-31T03:02:12.908Z,1015.14
2022-12-31T03:03:12.768Z,1014.98
2022-12-31T03:04:12.775Z,1015.00
2022-12-31T03:05:12.754Z,1015.25
2022-12-31T03:06:12.817Z,1014.97
2022-12-31T03:07:12.710Z,1014.97
2022-12-31T03:08:12.705Z,1014.97
2022-12-31T03:09:12.855Z,1014.97
2022-12-31T03:10:12.668Z,1014.83
2022-12-31T03:11:12.645Z,1014.91
2022-12-31T03:12:12.641Z,1014.92
2022-12-31T03:13:12.625Z,1015.00
2022-12-31T03:14:12.664Z,1015.02
2022-12-31T03:15:12.613Z,1015.07
2022-12-31T03:16:12.701Z,1014.95
2022-12-31T03:17:12.567Z,1014.99
2022-12-31T03:18:12.587Z,1014.77
2022-12-31T03:19:12.588Z,1015.00
2022-12-31T03:20:12.520Z,1015.00
2022-12-31T03:21:12.515Z,1015.01
2022-12-31T03:22:12.497Z,1014.99
2022-12-31T03:23:12.511Z,1015.00
2022-12-31T03:24:12.506Z,1015.03
2022-12-31T03:25:12.457Z,1015.04
2022-12-31T03:26:12.518Z,1015.05
2022-12-31T03:27:12.442Z,1015.06
2022-12-31T03:28:12.435Z,1014.93
2022-12-31T03:29:12.448Z,1015.12
2022-12-31T03:30:12.427Z,1015.13
2022-12-31T03:31:12.400Z,1015.03
2022-12-31T03:32:12.380Z,1015.06
2022-12-31T03:33:12.373Z,1015.12
2022-12-31T03:34:12.367Z,1015.00
2022-12-31T03:35:12.331Z,1015.10
2022-12-31T03:36:12.327Z,1015.13
2022-12-31T03:37:12.330Z,1015.18
2022-12-31T03:38:12.308Z,1015.13
2022-12-31T03:39:12.337Z,1015.26
2022-12-31T03:40:12.282Z,1015.14
2022-12-31T03:41:12.248Z,1015.14
2022-12-31T03:42:12.239Z,1015.17
2022-12-31T03:43:12.230Z,1015.16
2022-12-31T03:44:12.205Z,1015.22
2022-12-31T03:45:12.261Z,1014.97
2022-12-31T03:46:12.242Z,1015.20
2022-12-31T03:47:12.172Z,1015.13
2022-12-31T03:48:12.165Z,1015.07
2022-12-31T03:49:12.148Z,1015.12
2022-12-31T03:50:12.157Z,1015.09
2022-12-31T03:51:12.156Z,1015.11
2022-12-31T03:52:12.140Z,1015.12
2022-12-31T03:53:12.108Z,1015.03
2022-12-31T03:54:12.079Z,1015.15
2022-12-31T03:55:12.075Z,1015.06
2022-12-31T03:56:12.057Z,1015.20
2022-12-31T03:57:12.032Z,1015.13
2022-12-31T03:58:12.028Z,1015.17
2022-12-31T03:59:12.019Z,1015.26
2022-12-31T04:00:12.020Z,1015.06
2022-12-31T04:01:12.096Z,1015.14
2022-12-31T04:02:12.073Z,1015.10
2022-12-31T04:03:12.019Z,1015.05
2022-12-31T04:04:11.938Z,1015.05
2022-12-31T04:05:11.961Z,1015.10
2022-12-31T04:06:11.921Z,1014.97
2022-12-31T04:07:11.932Z,1015.07
2022-12-31T04:08:11.883Z,1015.12
2022-12-31T04:09:11.867Z,1015.14
2022-12-31T04:10:11.910Z,1015.20
2022-12-31T04:11:14.750Z,1015.13
2022-12-31T04:12:11.853Z,1015.16
2022-12-31T04:13:11.828Z,1015.21
2022-12-31T04:14:11.803Z,1015.24
2022-12-31T04:15:11.823Z,1015.28
2022-12-31T04:16:11.811Z,1015.10
2022-12-31T04:17:11.779Z,1015.17
2022-12-31T04:18:11.761Z,1015.27
2022-12-31T04:19:11.733Z,1015.22
2022-12-31T04:20:11.757Z,1015.10
2022-12-31T04:21:11.707Z,1015.08
2022-12-31T04:22:11.733Z,1015.16
2022-12-31T04:23:11.750Z,1015.13
2022-12-31T04:24:11.687Z,1015.21
2022-12-31T04:25:11.843Z,1015.09
2022-12-31T04:26:11.652Z,1015.29
2022-12-31T04:27:11.717Z,1015.23
2022-12-31T04:28:11.640Z,1015.28
2022-12-31T04:29:11.601Z,1015.27
2022-12-31T04:30:11.660Z,1015.21
2022-12-31T04:31:11.606Z,1015.24
2022-12-31T04:32:11.747Z,1015.31
2022-12-31T04:33:11.580Z,1015.46
2022-12-31T04:34:11.547Z,1015.31
2022-12-31T04:35:11.617Z,1015.21
2022-12-31T04:36:11.507Z,1015.26
2022-12-31T04:37:11.497Z,1015.09
2022-12-31T04:38:11.489Z,1015.20
2022-12-31T04:39:11.463Z,1015.32
2022-12-31T04:40:11.491Z,1015.34
2022-12-31T04:41:11.453Z,1015.31
2022-12-31T04:42:11.421Z,1015.37
2022-12-31T04:43:11.429Z,1015.27
2022-12-31T04:44:11.445Z,1015.37
2022-12-31T04:45:11.418Z,1015.44
2022-12-31T04:46:11.430Z,1015.35
2022-12-31T04:47:11.359Z,1015.38
2022-12-31T04:48:11.360Z,1015.27
2022-12-31T04:49:11.351Z,1015.40
2022-12-31T04:50:11.349Z,1015.46
2022-12-31T04:51:11.309Z,1015.37
2022-12-31T04:52:11.334Z,1015.35
2022-12-31T04:53:11.277Z,1015.33
2022-12-31T04:54:11.275Z,1015.40
2022-12-31T04:55:11.275Z,1015.45
2022-12-31T04:56:11.240Z,1015.47
2022-12-31T04:57:11.241Z,1015.29
2022-12-31T04:58:11.237Z,1015.37
2022-12-31T04:59:11.196Z,1015.50
2022-12-31T05:00:11.205Z,1015.43
2022-12-31T05:01:11.380Z,1015.08
2022-12-31T05:02:11.389Z,1015.31
2022-12-31T05:03:11.189Z,1015.28
2022-12-31T05:04:11.132Z,1015.36
2022-12-31T05:05:11.159Z,1015.26
2022-12-31T05:06:11.108Z,1015.27
2022-12-31T05:07:11.099Z,1015.35
2022-12-31T05:08:11.123Z,1015.26
2022-12-31T05:09:11.096Z,1015.34
2022-12-31T05:10:11.099Z,1015.26
2022-12-31T05:11:11.097Z,1015.45
2022-12-31T05:12:11.062Z,1015.35
2022-12-31T05:13:11.023Z,1015.40
2022-12-31T05:14:11.017Z,1015.27
2022-12-31T05:15:11.005Z,1015.28
2022-12-31T05:16:11.071Z,1015.27
2022-12-31T05:17:10.970Z,1015.22
2022-12-31T05:18:10.981Z,1015.18
2022-12-31T05:19:10.958Z,1015.27
2022-12-31T05:20:10.946Z,1015.14
2022-12-31T05:21:10.945Z,1015.28
2022-12-31T05:22:10.894Z,1015.21
2022-12-31T05:23:10.920Z,1015.23
2022-12-31T05:24:10.905Z,1015.25
2022-12-31T05:25:10.857Z,1015.34
2022-12-31T05:26:10.850Z,1015.36
2022-12-31T05:27:10.823Z,1015.21
2022-12-31T05:28:10.871Z,1015.29
2022-12-31T05:29:10.839Z,1015.27
2022-12-31T05:30:10.825Z,1015.24
2022-12-31T05:31:10.862Z,1015.34
2022-12-31T05:32:10.763Z,1015.33
2022-12-31T05:33:10.740Z,1015.36
2022-12-31T05:34:10.755Z,1015.36
2022-12-31T05:35:10.742Z,1015.37
2022-12-31T05:36:10.727Z,1015.37
2022-12-31T05:37:10.710Z,1015.33
2022-12-31T05:38:10.688Z,1015.35
2022-12-31T05:39:10.689Z,1015.38
2022-12-31T05:40:10.699Z,1015.56
2022-12-31T05:41:10.675Z,1015.42
2022-12-31T05:42:10.672Z,1015.44
2022-12-31T05:43:10.628Z,1015.40
2022-12-31T05:44:10.614Z,1015.41
2022-12-31T05:45:10.641Z,1015.43
2022-12-31T05:46:10.648Z,1015.36
2022-12-31T05:47:10.564Z,1015.47
2022-12-31T05:48:10.561Z,1015.48
2022-12-31T05:49:10.529Z,1015.49
2022-12-31T05:50:10.548Z,1015.53
2022-12-31T05:51:10.525Z,1015.47
2022-12-31T05:52:10.504Z,1015.51
2022-12-31T05:53:10.510Z,1015.52
2022-12-31T05:54:10.488Z,1015.47
2022-12-31T05:55:10.470Z,1015.48
2022-12-31T05:56:10.447Z,1015.56
2022-12-31T05:57:10.554Z,1015.50
2022-12-31T05:58:10.460Z,1015.60
2022-12-31T05:59:10.398Z,1015.58
2022-12-31T06:00:10.475Z,1015.57
2022-12-31T06:01:10.406Z,1015.65
2022-12-31T06:02:10.399Z,1015.56
2022-12-31T06:03:10.570Z,1015.51
2022-12-31T06:04:10.351Z,1015.59
2022-12-31T06:05:10.355Z,1015.62
2022-12-31T06:06:10.304Z,1015.65
2022-12-31T06:07:10.330Z,1015.61
2022-12-31T06:08:10.297Z,1015.66
2022-12-31T06:09:10.344Z,1015.72
2022-12-31T06:10:10.296Z,1015.53
2022-12-31T06:11:10.240Z,1015.71
2022-12-31T06:12:10.254Z,1015.67
2022-12-31T06:13:10.268Z,1015.73
2022-12-31T06:14:10.236Z,1015.76
2022-12-31T06:15:10.181Z,1015.73
2022-12-31T06:16:10.290Z,1015.68
2022-12-31T06:17:10.162Z,1015.72
2022-12-31T06:18:10.207Z,1015.78
2022-12-31T06:19:10.177Z,1015.81
2022-12-31T06:20:13.035Z,1016.00
2022-12-31T06:21:10.116Z,1015.76
2022-12-31T06:22:10.216Z,1015.93
2022-12-31T06:23:10.079Z,1015.90
2022-12-31T06:24:10.095Z,1015.93
2022-12-31T06:25:10.062Z,1015.87
2022-12-31T06:26:10.062Z,1015.86
2022-12-31T06:27:10.066Z,1016.01
2022-12-31T06:28:14.698Z,1016.01
2022-12-31T06:29:10.027Z,1015.97
2022-12-31T06:30:10.006Z,1015.91
2022-12-31T06:31:10.040Z,1016.12
2022-12-31T06:32:09.973Z,1016.02
2022-12-31T06:33:09.949Z,1016.02
2022-12-31T06:34:10.037Z,1016.03
2022-12-31T06:35:09.921Z,1016.02
2022-12-31T06:36:09.979Z,1016.09
2022-12-31T06:37:09.932Z,1015.99
2022-12-31T06:38:09.898Z,1016.04
2022-12-31T06:39:09.889Z,1016.00
2022-12-31T06:40:09.853Z,1016.06
2022-12-31T06:41:09.867Z,1016.04
2022-12-31T06:42:09.848Z,1016.06
2022-12-31T06:43:09.844Z,1016.11
2022-12-31T06:44:09.839Z,1016.12
2022-12-31T06:45:09.786Z,1016.13
2022-12-31T06:46:09.856Z,1015.97
2022-12-31T06:47:09.763Z,1016.22
2022-12-31T06:48:09.778Z,1016.18
2022-12-31T06:49:09.756Z,1015.99
2022-12-31T06:50:09.746Z,1016.10
2022-12-31T06:51:16.593Z,1016.13
2022-12-31T06:52:09.745Z,1016.08
2022-12-31T06:53:09.677Z,1015.97
2022-12-31T06:54:09.673Z,1016.12
2022-12-31T06:55:09.683Z,1015.99
2022-12-31T06:56:09.640Z,1016.09
2022-12-31T06:57:09.600Z,1016.11
2022-12-31T06:58:09.571Z,1016.10
2022-12-31T06:59:09.564Z,1016.12
2022-12-31T07:00:09.551Z,1016.08
2022-12-31T07:01:09.608Z,1016.09
2022-12-31T07:02:09.553Z,1016.01
2022-12-31T07:03:09.547Z,1016.10
2022-12-31T07:04:09.501Z,1015.89
2022-12-31T07:05:09.477Z,1016.07
2022-12-31T07:06:09.498Z,1016.01
2022-12-31T07:07:09.454Z,1016.04
2022-12-31T07:08:09.441Z,1016.05
2022-12-31T07:09:09.449Z,1016.09
2022-12-31T07:10:09.452Z,1016.11
2022-12-31T07:11:09.383Z,1016.05
2022-12-31T07:12:09.385Z,1016.07
2022-12-31T07:13:09.353Z,1016.10
2022-12-31T07:14:09.383Z,1016.19
2022-12-31T07:15:09.341Z,1016.17
2022-12-31T07:16:09.425Z,1016.18
2022-12-31T07:17:09.302Z,1016.22
2022-12-31T07:18:09.312Z,1016.28
2022-12-31T07:19:09.313Z,1016.23
2022-12-31T07:20:09.291Z,1016.32
2022-12-31T07:21:09.301Z,1016.32
2022-12-31T07:22:09.241Z,1016.33
2022-12-31T07:23:09.230Z,1016.33
2022-12-31T07:24:09.241Z,1016.42
2022-12-31T07:25:09.193Z,1016.40
2022-12-31T07:26:09.213Z,1016.36
2022-12-31T07:27:09.217Z,1016.38
2022-12-31T07:28:09.161Z,1016.37
2022-12-31T07:29:09.187Z,1016.40
2022-12-31T07:30:09.132Z,1016.39
2022-12-31T07:31:09.220Z,1016.33
2022-12-31T07:32:09.115Z,1016.33
2022-12-31T07:33:09.092Z,1016.39
2022-12-31T07:34:09.120Z,1016.27
2022-12-31T07:35:09.103Z,1016.48
2022-12-31T07:36:09.059Z,1016.39
2022-12-31T07:37:09.145Z,1016.42
2022-12-31T07:38:09.031Z,1016.46
2022-12-31T07:39:09.009Z,1016.44
2022-12-31T07:40:09.034Z,1016.54
2022-12-31T07:41:10.046Z,1016.54
2022-12-31T07:42:09.021Z,1016.60
2022-12-31T07:43:08.973Z,1016.62
2022-12-31T07:44:08.948Z,1016.62
2022-12-31T07:45:08.967Z,1016.69
2022-12-31T07:46:09.001Z,1016.62
2022-12-31T07:47:08.975Z,1016.69
2022-12-31T07:48:08.944Z,1016.74
2022-12-31T07:49:08.886Z,1016.66
2022-12-31T07:50:08.886Z,1016.75
2022-12-31T07:51:08.881Z,1016.70
2022-12-31T07:52:08.858Z,1016.77
2022-12-31T07:53:08.828Z,1016.76
2022-12-31T07:54:13.964Z,1016.75
2022-12-31T07:55:08.812Z,1016.84
2022-12-31T07:56:08.800Z,1016.79
2022-12-31T07:57:08.816Z,1016.83
2022-12-31T07:58:08.789Z,1016.81
2022-12-31T07:59:08.786Z,1016.76
2022-12-31T08:00:08.756Z,1016.89
2022-12-31T08:01:08.965Z,1016.83
2022-12-31T08:02:08.853Z,1016.90
2022-12-31T08:03:08.897Z,1016.88
2022-12-31T08:04:08.709Z,1016.95
2022-12-31T08:05:08.716Z,1016.99
2022-12-31T08:06:08.700Z,1016.96
2022-12-31T08:07:08.696Z,1017.04
2022-12-31T08:08:08.708Z,1016.99
2022-12-31T08:09:08.627Z,1017.01
2022-12-31T08:10:14.038Z,1017.06
2022-12-31T08:11:08.622Z,1017.04
2022-12-31T08:12:08.618Z,1017.02
2022-12-31T08:13:08.548Z,1017.02
2022-12-31T08:14:08.547Z,1017.08
2022-12-31T08:15:08.528Z,1017.06
2022-12-31T08:16:08.565Z,1017.01
2022-12-31T08:17:08.520Z,1016.92
2022-12-31T08:18:08.546Z,1017.05
2022-12-31T08:19:08.529Z,1017.01
2022-12-31T08:20:08.475Z,1017.07
2022-12-31T08:21:08.472Z,1017.16
2022-12-31T08:22:08.505Z,1017.09
2022-12-31T08:23:08.449Z,1017.10
2022-12-31T08:24:08.453Z,1017.08
2022-12-31T08:25:08.485Z,1017.08
2022-12-31T08:26:08.407Z,1017.16
2022-12-31T08:27:08.421Z,1017.12
2022-12-31T08:28:08.390Z,1017.17
2022-12-31T08:29:08.381Z,1017.13
2022-12-31T08:30:08.368Z,1017.06
2022-12-31T08:31:08.421Z,1017.16
2022-12-31T08:32:08.307Z,1017.22
2022-12-31T08:33:08.315Z,1017.24
2022-12-31T08:34:08.347Z,1017.26
2022-12-31T08:35:08.479Z,1017.25
2022-12-31T08:36:08.255Z,1017.22
2022-12-31T08:37:08.348Z,1017.15
2022-12-31T08:38:08.226Z,1017.29
2022-12-31T08:39:08.217Z,1017.30
2022-12-31T08:40:08.203Z,1017.25
2022-12-31T08:41:08.187Z,1017.36
2022-12-31T08:42:08.201Z,1017.31
2022-12-31T08:43:08.193Z,1017.30
2022-12-31T08:44:08.184Z,1017.29
2022-12-31T08:45:08.166Z,1017.29
2022-12-31T08:46:08.183Z,1017.30
2022-12-31T08:47:08.106Z,1017.36
2022-12-31T08:48:08.108Z,1017.31
2022-12-31T08:49:08.075Z,1017.31
2022-12-31T08:50:08.104Z,1017.31
2022-12-31T08:51:08.067Z,1017.28
2022-12-31T08:52:08.034Z,1017.37
2022-12-31T08:53:08.088Z,1017.32
2022-12-31T08:54:08.025Z,1017.24
2022-12-31T08:55:08.003Z,1017.33
2022-12-31T08:56:08.068Z,1017.37
2022-12-31T08:57:07.991Z,1017.27
2022-12-31T08:58:07.982Z,1017.34
2022-12-31T08:59:07.983Z,1017.27
2022-12-31T09:00:07.934Z,1017.26
2022-12-31T09:01:08.070Z,1017.23
2022-12-31T09:02:08.154Z,1017.34
2022-12-31T09:03:07.909Z,1017.28
2022-12-31T09:04:07.947Z,1017.31
2022-12-31T09:05:07.931Z,1017.29
2022-12-31T09:06:07.852Z,1017.31
2022-12-31T09:07:07.857Z,1017.25
2022-12-31T09:08:07.843Z,1017.29
2022-12-31T09:09:07.836Z,1017.33
2022-12-31T09:10:07.808Z,1017.33
2022-12-31T09:11:07.834Z,1017.36
2022-12-31T09:12:07.774Z,1017.40
2022-12-31T09:13:07.826Z,1017.33
2022-12-31T09:14:07.762Z,1017.34
2022-12-31T09:15:07.754Z,1017.30
2022-12-31T09:16:07.820Z,1017.31
2022-12-31T09:17:07.717Z,1017.30
2022-12-31T09:18:07.683Z,1017.32
2022-12-31T09:19:07.708Z,1017.29
2022-12-31T09:20:07.681Z,1017.35
2022-12-31T09:21:07.677Z,1017.37
2022-12-31T09:22:07.672Z,1017.28
2022-12-31T09:23:07.644Z,1017.29
2022-12-31T09:24:09.598Z,1017.27
2022-12-31T09:25:07.609Z,1017.31
2022-12-31T09:26:07.589Z,1017.30
2022-12-31T09:27:07.611Z,1017.26
2022-12-31T09:28:07.610Z,1017.26
2022-12-31T09:29:07.548Z,1017.39
2022-12-31T09:30:07.571Z,1017.27
2022-12-31T09:31:07.588Z,1017.42
2022-12-31T09:32:07.554Z,1017.34
2022-12-31T09:33:07.501Z,1017.29
2022-12-31T09:34:07.486Z,1017.26
2022-12-31T09:35:07.524Z,1017.26
2022-12-31T09:36:07.460Z,1017.22
2022-12-31T09:37:07.465Z,1017.30
2022-12-31T09:38:11.372Z,1017.28
2022-12-31T09:39:07.431Z,1017.22
2022-12-31T09:40:07.404Z,1017.19
2022-12-31T09:41:07.409Z,1017.20
2022-12-31T09:42:07.398Z,1017.19
2022-12-31T09:43:07.374Z,1017.15
2022-12-31T09:44:07.347Z,1017.25
2022-12-31T09:45:07.340Z,1017.27
2022-12-31T09:46:07.358Z,1017.27
2022-12-31T09:47:07.375Z,1017.34
2022-12-31T09:48:07.304Z,1017.31
2022-12-31T09:49:07.291Z,1017.33
2022-12-31T09:50:07.400Z,1017.34
2022-12-31T09:51:07.280Z,1017.42
2022-12-31T09:52:07.270Z,1017.39
2022-12-31T09:53:07.282Z,1017.42
2022-12-31T09:54:07.207Z,1017.39
2022-12-31T09:55:07.252Z,1017.26
2022-12-31T09:56:07.189Z,1017.41
2022-12-31T09:57:07.245Z,1017.45
2022-12-31T09:58:07.180Z,1017.37
2022-12-31T09:59:07.160Z,1017.35
2022-12-31T10:00:07.137Z,1017.52
2022-12-31T10:01:07.229Z,1017.48
2022-12-31T10:02:07.365Z,1017.56
2022-12-31T10:03:07.124Z,1017.52
2022-12-31T10:04:07.109Z,1017.61
2022-12-31T10:05:07.068Z,1017.63
2022-12-31T10:06:07.054Z,1017.64
2022-12-31T10:07:07.071Z,1017.61
2022-12-31T10:08:07.038Z,1017.56
2022-12-31T10:09:07.131Z,1017.49
2022-12-31T10:10:06.995Z,1017.59
2022-12-31T10:11:06.988Z,1017.60
2022-12-31T10:12:07.056Z,1017.57
2022-12-31T10:13:06.990Z,1017.65
2022-12-31T10:14:07.015Z,1017.62
2022-12-31T10:15:06.959Z,1017.68
2022-12-31T10:16:06.930Z,1017.60
2022-12-31T10:17:07.029Z,1017.64
2022-12-31T10:18:06.902Z,1017.65
2022-12-31T10:19:06.969Z,1017.61
2022-12-31T10:20:06.912Z,1017.64
2022-12-31T10:21:06.890Z,1017.67
2022-12-31T10:22:06.857Z,1017.68
2022-12-31T10:23:06.837Z,1017.70
2022-12-31T10:24:06.851Z,1017.68
2022-12-31T10:25:06.871Z,1017.65
2022-12-31T10:26:06.795Z,1017.64
2022-12-31T10:27:06.782Z,1017.64
2022-12-31T10:28:06.755Z,1017.65
2022-12-31T10:29:06.804Z,1017.65
2022-12-31T10:30:06.741Z,1017.68
2022-12-31T10:31:06.816Z,1017.68
2022-12-31T10:32:06.712Z,1017.70
2022-12-31T10:33:06.717Z,1017.75
2022-12-31T10:34:06.796Z,1017.75
2022-12-31T10:35:06.695Z,1017.66
2022-12-31T10:36:06.661Z,1017.72
2022-12-31T10:37:06.655Z,1017.75
2022-12-31T10:38:06.630Z,1017.69
2022-12-31T10:39:12.856Z,1017.71
2022-12-31T10:40:06.598Z,1017.71
2022-12-31T10:41:06.602Z,1017.72
2022-12-31T10:42:06.581Z,1017.73
2022-12-31T10:43:06.577Z,1017.58
2022-12-31T10:44:06.595Z,1017.60
2022-12-31T10:45:06.566Z,1017.65
2022-12-31T10:46:06.566Z,1017.65
2022-12-31T10:47:06.520Z,1017.61
2022-12-31T10:48:06.532Z,1017.58
2022-12-31T10:49:06.477Z,1017.57
2022-12-31T10:50:06.498Z,1017.59
2022-12-31T10:51:06.462Z,1017.60
2022-12-31T10:52:12.946Z,1017.56
2022-12-31T10:53:06.424Z,1017.57
2022-12-31T10:54:06.403Z,1017.46
2022-12-31T10:55:06.437Z,1017.46
2022-12-31T10:56:06.390Z,1017.42
2022-12-31T10:57:06.387Z,1017.44
2022-12-31T10:58:06.351Z,1017.37
2022-12-31T10:59:06.348Z,1017.42
2022-12-31T11:00:06.351Z,1017.35
2022-12-31T11:01:06.490Z,1017.31
2022-12-31T11:02:06.506Z,1017.32
2022-12-31T11:03:06.390Z,1017.33
2022-12-31T11:04:06.275Z,1017.25
2022-12-31T11:05:06.283Z,1017.19
2022-12-31T11:06:06.248Z,1017.18
2022-12-31T11:07:06.243Z,1017.12
2022-12-31T11:08:06.227Z,1017.15
2022-12-31T11:09:06.227Z,1017.13
2022-12-31T11:10:06.216Z,1017.18
2022-12-31T11:11:06.191Z,1017.25
2022-12-31T11:12:06.172Z,1017.18
2022-12-31T11:13:06.153Z,1017.14
2022-12-31T11:14:06.160Z,1017.21
2022-12-31T11:15:06.135Z,1017.29
2022-12-31T11:16:06.161Z,1017.31
2022-12-31T11:17:06.098Z,1017.26
2022-12-31T11:18:06.092Z,1017.36
2022-12-31T11:19:06.130Z,1017.36
2022-12-31T11:20:06.082Z,1017.32
2022-12-31T11:21:06.054Z,1017.37
2022-12-31T11:22:06.033Z,1017.38
2022-12-31T11:23:06.032Z,1017.49
2022-12-31T11:24:06.065Z,1017.43
2022-12-31T11:25:06.043Z,1017.43
2022-12-31T11:26:05.993Z,1017.52
2022-12-31T11:27:05.982Z,1017.50
2022-12-31T11:28:05.970Z,1017.46
2022-12-31T11:29:05.954Z,1017.43
2022-12-31T11:30:05.968Z,1017.48
2022-12-31T11:31:05.988Z,1017.39
2022-12-31T11:32:05.913Z,1017.46
2022-12-31T11:33:05.900Z,1017.46
2022-12-31T11:34:05.921Z,1017.46
2022-12-31T11:35:05.887Z,1017.47
2022-12-31T11:36:05.893Z,1017.48
2022-12-31T11:37:05.862Z,1017.56
2022-12-31T11:38:05.831Z,1017.59
2022-12-31T11:39:05.831Z,1017.59
2022-12-31T11:40:05.811Z,1017.65
2022-12-31T11:41:05.833Z,1017.67
2022-12-31T11:42:05.769Z,1017.71
2022-12-31T11:43:05.783Z,1017.63
2022-12-31T11:44:05.771Z,1017.68
2022-12-31T11:45:05.749Z,1017.71
2022-12-31T11:46:05.732Z,1017.70
2022-12-31T11:47:05.719Z,1017.71
2022-12-31T11:48:29.489Z,1017.69
2022-12-31T11:49:05.680Z,1017.74
2022-12-31T11:50:05.694Z,1017.67
2022-12-31T11:51:05.672Z,1017.76
2022-12-31T11:52:05.635Z,1017.79
2022-12-31T11:53:05.649Z,1017.73
2022-12-31T11:54:05.612Z,1017.76
2022-12-31T11:55:05.619Z,1017.67
2022-12-31T11:56:05.583Z,1017.68
2022-12-31T11:57:05.585Z,1017.63
2022-12-31T11:58:05.553Z,1017.63
2022-12-31T11:59:10.306Z,1017.72
2022-12-31T12:00:05.635Z,1017.72
2022-12-31T12:01:05.628Z,1017.69
2022-12-31T12:02:05.507Z,1017.72
2022-12-31T12:03:05.572Z,1017.72
2022-12-31T12:04:05.510Z,1017.68
2022-12-31T12:05:10.763Z,1017.78
2022-12-31T12:06:05.480Z,1017.71